Time;durP1;ratioP1;P1;durP2;ratioP2;P2;SDS_P1;SDS_P2;PMS_P1;PMS_P2;Temp;Humidity;BMP_temperature;BMP_pressure;BME280_temperature;BME280_humidity;BME280_pressure;Samples;Min_cycle;Max_cycle;Signal;HPM_P1;HPM_P2
2021/07/16 00:01:03;;;;;;;30.67;18.77;;;17.40;99.90;;;;;;5019631;28;20485;-69
2021/07/16 00:03:30;;;;;;;27.10;20.07;;;17.40;99.90;;;;;;5021154;28;20560;-73
2021/07/16 00:05:59;;;;;;;34.73;20.60;;;17.40;99.90;;;;;;5020757;28;20473;-70
2021/07/16 00:08:28;;;;;;;28.63;18.60;;;17.40;99.90;;;;;;5018682;28;20461;-70
2021/07/16 00:10:55;;;;;;;33.50;18.97;;;17.40;99.90;;;;;;5021994;28;20516;-69
2021/07/16 00:13:23;;;;;;;28.13;18.43;;;17.40;99.90;;;;;;5025503;28;20544;-69
2021/07/16 00:15:50;;;;;;;30.40;18.33;;;17.30;99.90;;;;;;5021533;28;20465;-69
2021/07/16 00:18:18;;;;;;;27.70;17.60;;;17.30;99.90;;;;;;5024434;28;20468;-71
2021/07/16 00:20:45;;;;;;;27.40;19.60;;;17.30;99.90;;;;;;5021301;28;20856;-69
2021/07/16 00:23:13;;;;;;;28.60;19.83;;;17.30;99.90;;;;;;5019609;28;20538;-69
2021/07/16 00:25:40;;;;;;;35.53;20.57;;;17.30;99.90;;;;;;5022123;28;20471;-69
2021/07/16 00:28:08;;;;;;;31.90;19.20;;;17.30;99.90;;;;;;5022811;28;20470;-70
2021/07/16 00:30:35;;;;;;;32.03;20.10;;;17.30;99.90;;;;;;5021558;28;20467;-69
2021/07/16 00:33:02;;;;;;;31.97;18.53;;;17.40;99.90;;;;;;5018826;28;20465;-70
2021/07/16 00:35:30;;;;;;;32.07;19.77;;;17.40;99.90;;;;;;5022318;28;20465;-74
2021/07/16 00:37:57;;;;;;;37.40;20.30;;;17.40;99.90;;;;;;5023033;28;20900;-71
2021/07/16 00:40:27;;;;;;;28.23;18.20;;;17.40;99.90;;;;;;5022694;28;21010;-70
2021/07/16 00:42:53;;;;;;;20.33;16.30;;;17.30;99.90;;;;;;5023633;28;20654;-71
2021/07/16 00:45:21;;;;;;;24.50;18.83;;;17.30;99.90;;;;;;5023031;28;20493;-69
2021/07/16 00:47:48;;;;;;;22.50;17.80;;;17.30;99.90;;;;;;5020227;28;20808;-69
2021/07/16 00:50:20;;;;;;;30.93;18.73;;;17.30;99.90;;;;;;5020921;28;20468;-71
2021/07/16 00:52:47;;;;;;;34.37;20.23;;;17.20;99.90;;;;;;5017258;28;20816;-70
2021/07/16 00:55:16;;;;;;;36.47;18.67;;;17.20;99.90;;;;;;5021317;28;20465;-69
2021/07/16 00:57:45;;;;;;;27.97;17.67;;;17.20;99.90;;;;;;5024602;28;20461;-69
2021/07/16 01:00:14;;;;;;;20.50;17.57;;;17.20;99.90;;;;;;5017794;28;20465;-71
2021/07/16 01:02:41;;;;;;;33.13;19.00;;;17.20;99.90;;;;;;5018766;28;20468;-70
2021/07/16 01:05:11;;;;;;;27.93;17.90;;;17.20;99.90;;;;;;5014794;28;20485;-73
2021/07/16 01:07:40;;;;;;;32.07;18.70;;;17.10;99.90;;;;;;5021945;28;20464;-69
2021/07/16 01:10:09;;;;;;;28.63;19.50;;;17.10;99.90;;;;;;5022453;28;20493;-68
2021/07/16 01:12:38;;;;;;;32.50;18.87;;;17.10;99.90;;;;;;5022709;28;20461;-70
2021/07/16 01:15:14;;;;;;;29.80;20.43;;;17.10;99.90;;;;;;5016171;28;20461;-71
2021/07/16 01:17:41;;;;;;;25.10;19.43;;;17.10;99.90;;;;;;5015956;28;20453;-70
2021/07/16 01:20:12;;;;;;;27.33;19.50;;;17.00;99.90;;;;;;5020870;28;20469;-69
2021/07/16 01:22:41;;;;;;;27.80;18.73;;;17.00;99.90;;;;;;5020494;28;20465;-72
2021/07/16 01:25:13;;;;;;;28.10;19.50;;;17.10;99.90;;;;;;5022405;28;20932;-72
2021/07/16 01:27:41;;;;;;;25.33;16.97;;;17.10;99.90;;;;;;5024796;28;20457;-71
2021/07/16 01:30:11;;;;;;;45.97;20.03;;;17.20;99.90;;;;;;5021198;28;20464;-69
2021/07/16 01:32:38;;;;;;;29.77;17.83;;;17.20;99.90;;;;;;5020162;28;20484;-69
2021/07/16 01:35:06;;;;;;;36.13;18.20;;;17.20;99.90;;;;;;5013205;28;20466;-72
2021/07/16 01:37:35;;;;;;;26.83;17.13;;;17.00;99.90;;;;;;5021668;28;20481;-72
2021/07/16 01:40:02;;;;;;;31.40;18.60;;;16.90;99.90;;;;;;5017419;28;20486;-71
2021/07/16 01:42:38;;;;;;;27.00;19.70;;;16.90;99.90;;;;;;5024380;28;20461;-69
2021/07/16 01:45:06;;;;;;;25.90;19.77;;;16.90;99.90;;;;;;5021619;28;20503;-69
2021/07/16 01:47:33;;;;;;;41.43;18.37;;;16.80;99.90;;;;;;5018958;28;20472;-71
2021/07/16 01:50:04;;;;;;;26.43;20.70;;;16.90;99.90;;;;;;5019657;28;20472;-71
2021/07/16 01:52:32;;;;;;;24.40;18.10;;;16.90;99.90;;;;;;5021512;28;20488;-69
2021/07/16 01:54:58;;;;;;;32.27;18.83;;;16.90;99.90;;;;;;5019642;28;20991;-70
2021/07/16 01:57:26;;;;;;;30.30;19.17;;;16.80;99.90;;;;;;5020625;28;20457;-71
2021/07/16 01:59:55;;;;;;;32.43;18.10;;;16.80;99.90;;;;;;5020611;28;20553;-70
2021/07/16 02:02:22;;;;;;;29.47;19.27;;;16.80;99.90;;;;;;5025112;28;20457;-71
2021/07/16 02:04:50;;;;;;;39.53;17.87;;;16.90;99.90;;;;;;5016564;28;20527;-71
2021/07/16 02:07:17;;;;;;;27.30;18.20;;;16.80;99.90;;;;;;5017361;28;20468;-73
2021/07/16 02:09:44;;;;;;;27.17;18.77;;;16.90;99.90;;;;;;5017630;28;22963;-69
2021/07/16 02:12:11;;;;;;;28.37;19.63;;;16.80;99.90;;;;;;5015012;28;20460;-71
2021/07/16 02:14:38;;;;;;;33.50;18.80;;;16.80;99.90;;;;;;5021819;28;20461;-71
2021/07/16 02:17:06;;;;;;;33.40;19.17;;;16.80;99.90;;;;;;5026130;28;20515;-70
2021/07/16 02:19:35;;;;;;;23.70;18.43;;;16.80;99.90;;;;;;5021590;28;20468;-69
2021/07/16 02:22:05;;;;;;;31.47;20.13;;;16.70;99.90;;;;;;5018041;28;20500;-74
2021/07/16 02:24:35;;;;;;;36.03;19.23;;;16.70;99.90;;;;;;5018591;28;20835;-73
2021/07/16 02:27:05;;;;;;;20.20;18.00;;;16.80;99.90;;;;;;5017417;28;20967;-71
2021/07/16 02:29:33;;;;;;;27.03;18.70;;;16.70;99.90;;;;;;5018594;28;20469;-73
2021/07/16 02:32:00;;;;;;;36.10;18.57;;;16.80;99.90;;;;;;5019852;28;20458;-74
2021/07/16 02:34:30;;;;;;;28.40;16.43;;;16.80;99.90;;;;;;5024355;28;21042;-73
2021/07/16 02:36:57;;;;;;;36.00;17.43;;;16.80;99.90;;;;;;5021038;28;20494;-70
2021/07/16 02:39:24;;;;;;;30.83;18.70;;;16.70;99.90;;;;;;5026451;28;20488;-70
2021/07/16 02:41:51;;;;;;;30.40;17.33;;;16.70;99.90;;;;;;5027591;28;20977;-71
2021/07/16 02:44:18;;;;;;;25.10;17.50;;;16.70;99.90;;;;;;5020124;28;21662;-70
2021/07/16 02:46:45;;;;;;;33.90;17.17;;;16.70;99.90;;;;;;5023287;28;20460;-70
2021/07/16 02:49:12;;;;;;;27.33;16.97;;;16.70;99.90;;;;;;5022584;28;20460;-70
2021/07/16 02:51:40;;;;;;;29.23;17.40;;;16.60;99.90;;;;;;5026329;28;20467;-72
2021/07/16 02:54:07;;;;;;;22.43;17.20;;;16.60;99.90;;;;;;5017831;28;20461;-72
2021/07/16 02:56:33;;;;;;;21.73;15.77;;;16.60;99.90;;;;;;5025940;28;20471;-71
2021/07/16 02:59:00;;;;;;;31.07;17.10;;;16.60;99.90;;;;;;5023571;28;20467;-69
2021/07/16 03:01:27;;;;;;;26.10;17.27;;;16.60;99.90;;;;;;5021921;28;20465;-70
2021/07/16 03:03:54;;;;;;;21.13;17.37;;;16.70;99.90;;;;;;5021212;28;20464;-70
2021/07/16 03:06:22;;;;;;;21.33;14.63;;;16.70;99.90;;;;;;5023149;28;20462;-69
2021/07/16 03:08:50;;;;;;;26.63;17.00;;;16.70;99.90;;;;;;5021975;28;20467;-71
2021/07/16 03:11:17;;;;;;;19.70;15.53;;;16.60;99.90;;;;;;5027300;28;20465;-68
2021/07/16 03:13:44;;;;;;;26.27;17.17;;;16.60;99.90;;;;;;5026653;28;20453;-69
2021/07/16 03:16:10;;;;;;;26.10;17.30;;;16.60;99.90;;;;;;5019957;28;20466;-71
2021/07/16 03:18:37;;;;;;;25.13;15.00;;;16.60;99.90;;;;;;5016315;28;20476;-70
2021/07/16 03:21:04;;;;;;;21.60;16.77;;;16.60;99.90;;;;;;5026614;28;20462;-72
2021/07/16 03:23:31;;;;;;;29.47;15.90;;;16.60;99.90;;;;;;5022211;28;20479;-70
2021/07/16 03:25:59;;;;;;;22.07;16.20;;;16.60;99.90;;;;;;5024696;28;20487;-70
2021/07/16 03:28:26;;;;;;;24.97;15.37;;;16.60;99.90;;;;;;5026825;28;20461;-70
2021/07/16 03:30:53;;;;;;;18.07;16.13;;;16.60;99.90;;;;;;5021886;28;20483;-70
2021/07/16 03:33:20;;;;;;;25.33;15.70;;;16.60;99.90;;;;;;5019071;28;20826;-74
2021/07/16 03:35:48;;;;;;;20.83;16.50;;;16.50;99.90;;;;;;5023760;28;20465;-69
2021/07/16 03:38:15;;;;;;;16.90;15.10;;;16.50;99.90;;;;;;5021153;28;20467;-72
2021/07/16 03:40:42;;;;;;;19.80;15.80;;;16.50;99.90;;;;;;5021267;28;20522;-70
2021/07/16 03:43:12;;;;;;;19.00;16.67;;;16.60;99.90;;;;;;5022173;28;20467;-70
2021/07/16 03:45:39;;;;;;;29.53;17.10;;;16.60;99.90;;;;;;5019793;28;20492;-70
2021/07/16 03:48:06;;;;;;;25.33;17.17;;;16.60;99.90;;;;;;5021352;28;20469;-69
2021/07/16 03:50:33;;;;;;;25.03;16.00;;;16.70;99.90;;;;;;5023484;28;20469;-70
2021/07/16 03:53:00;;;;;;;43.97;17.40;;;16.70;99.90;;;;;;5023243;28;20469;-70
2021/07/16 03:55:28;;;;;;;23.60;16.00;;;16.60;99.90;;;;;;5022704;28;20515;-72
2021/07/16 03:57:55;;;;;;;23.63;16.30;;;16.60;99.90;;;;;;5022498;28;20461;-70
2021/07/16 04:00:28;;;;;;;29.50;17.90;;;16.60;99.90;;;;;;5017436;28;20465;-69
2021/07/16 04:02:55;;;;;;;21.97;17.50;;;16.60;99.90;;;;;;5020476;28;20975;-70
2021/07/16 04:05:23;;;;;;;19.87;17.37;;;16.50;99.90;;;;;;5020747;28;21024;-69
2021/07/16 04:07:51;;;;;;;19.87;16.13;;;16.60;99.90;;;;;;5023632;28;20831;-70
2021/07/16 04:10:20;;;;;;;28.90;15.33;;;16.60;99.90;;;;;;5019549;28;20505;-70
2021/07/16 04:12:54;;;;;;;21.40;15.20;;;16.50;99.90;;;;;;5018621;28;20836;-69
2021/07/16 04:15:25;;;;;;;21.07;15.33;;;16.50;99.90;;;;;;5024664;28;20465;-70
2021/07/16 04:17:52;;;;;;;20.60;16.40;;;16.40;99.90;;;;;;5022457;28;20964;-71
2021/07/16 04:20:20;;;;;;;19.83;17.87;;;16.30;99.90;;;;;;5021401;28;20457;-70
2021/07/16 04:22:47;;;;;;;29.07;22.23;;;16.20;99.90;;;;;;5021950;28;20483;-69
2021/07/16 04:25:17;;;;;;;30.10;23.47;;;16.20;99.90;;;;;;5021525;28;20810;-68
2021/07/16 04:27:44;;;;;;;24.90;21.70;;;16.20;99.90;;;;;;5021325;28;20496;-72
2021/07/16 04:30:12;;;;;;;26.60;22.93;;;16.10;99.90;;;;;;5019981;28;20469;-69
2021/07/16 04:32:41;;;;;;;28.73;23.13;;;16.10;99.90;;;;;;5022372;28;20456;-69
2021/07/16 04:35:09;;;;;;;27.63;23.67;;;16.20;99.90;;;;;;5016362;28;20828;-71
2021/07/16 04:37:39;;;;;;;27.90;24.70;;;16.20;99.90;;;;;;5019795;28;20497;-69
2021/07/16 04:40:08;;;;;;;37.47;23.60;;;16.20;99.90;;;;;;5022823;28;20480;-70
2021/07/16 04:42:35;;;;;;;28.10;23.23;;;16.20;99.90;;;;;;5023426;28;20457;-69
2021/07/16 04:45:03;;;;;;;33.67;24.30;;;16.20;99.90;;;;;;5023307;28;20486;-71
2021/07/16 04:47:31;;;;;;;27.80;24.13;;;16.20;99.90;;;;;;5019294;28;20472;-69
2021/07/16 04:50:00;;;;;;;29.70;24.23;;;16.20;99.90;;;;;;5021218;28;20587;-70
2021/07/16 04:52:27;;;;;;;33.50;24.10;;;16.20;99.90;;;;;;5019446;28;20471;-71
2021/07/16 04:54:56;;;;;;;35.87;24.40;;;16.30;99.90;;;;;;5014783;28;20469;-69
2021/07/16 04:57:22;;;;;;;30.57;25.33;;;16.30;99.90;;;;;;5022488;28;20475;-70
2021/07/16 04:59:50;;;;;;;26.47;23.97;;;16.30;99.90;;;;;;5023565;28;20448;-72
2021/07/16 05:02:17;;;;;;;27.87;23.83;;;16.30;99.90;;;;;;5015877;28;20466;-69
2021/07/16 05:04:44;;;;;;;28.87;25.80;;;16.20;99.90;;;;;;5018930;28;20482;-69
2021/07/16 05:07:14;;;;;;;31.33;24.97;;;16.30;99.90;;;;;;5022731;28;20472;-71
2021/07/16 05:09:41;;;;;;;30.10;25.00;;;16.30;99.90;;;;;;5021585;28;20971;-69
2021/07/16 05:12:08;;;;;;;32.40;25.80;;;16.40;99.90;;;;;;5014866;28;20778;-72
2021/07/16 05:14:35;;;;;;;33.40;26.37;;;16.40;99.90;;;;;;5025102;28;20465;-72
2021/07/16 05:17:03;;;;;;;35.47;26.80;;;16.40;99.90;;;;;;5020636;28;20544;-69
2021/07/16 05:19:30;;;;;;;29.03;25.47;;;16.50;99.90;;;;;;5016808;28;20497;-69
2021/07/16 05:21:58;;;;;;;29.93;26.83;;;16.50;99.90;;;;;;5015377;28;20457;-72
2021/07/16 05:24:26;;;;;;;32.77;27.63;;;16.50;99.90;;;;;;5019590;28;20456;-68
2021/07/16 05:26:54;;;;;;;35.33;29.50;;;16.40;99.90;;;;;;5020661;28;20469;-69
2021/07/16 05:29:22;;;;;;;41.03;26.70;;;16.40;99.90;;;;;;5014529;28;20468;-69
2021/07/16 05:31:49;;;;;;;33.03;26.60;;;16.40;99.90;;;;;;5016868;28;20556;-70
2021/07/16 05:34:16;;;;;;;33.37;26.80;;;16.30;99.90;;;;;;5015602;28;20464;-70
2021/07/16 05:36:43;;;;;;;34.17;26.73;;;16.30;99.90;;;;;;5020128;28;20495;-72
2021/07/16 05:39:10;;;;;;;28.57;25.63;;;16.40;99.90;;;;;;5025352;28;20461;-70
2021/07/16 05:41:40;;;;;;;28.80;26.13;;;16.30;99.90;;;;;;5024339;28;20534;-69
2021/07/16 05:44:08;;;;;;;29.63;26.50;;;16.20;99.90;;;;;;5017299;28;20461;-71
2021/07/16 05:46:35;;;;;;;28.90;25.80;;;16.20;99.90;;;;;;5021748;28;20496;-69
2021/07/16 05:49:02;;;;;;;32.77;27.00;;;16.10;99.90;;;;;;5019623;28;20531;-70
2021/07/16 05:51:29;;;;;;;31.93;27.60;;;16.20;99.90;;;;;;5023100;28;20469;-70
2021/07/16 05:53:56;;;;;;;29.33;26.40;;;16.20;99.90;;;;;;5016913;28;20468;-69
2021/07/16 05:56:24;;;;;;;28.70;25.93;;;16.20;99.90;;;;;;5023033;28;20952;-69
2021/07/16 05:58:53;;;;;;;27.67;24.80;;;16.10;99.90;;;;;;5023188;28;20469;-72
2021/07/16 06:01:21;;;;;;;29.70;25.57;;;16.10;99.90;;;;;;5021192;28;20480;-71
2021/07/16 06:03:48;;;;;;;28.70;25.67;;;16.10;99.90;;;;;;5018484;28;20548;-71
2021/07/16 06:06:15;;;;;;;28.57;25.20;;;16.20;99.90;;;;;;5020472;28;20492;-70
2021/07/16 06:08:43;;;;;;;30.20;25.10;;;16.00;99.90;;;;;;5017383;28;20472;-69
2021/07/16 06:11:10;;;;;;;36.23;26.30;;;15.90;99.90;;;;;;5027959;28;20476;-70
2021/07/16 06:13:39;;;;;;;35.67;27.23;;;15.90;99.90;;;;;;5026263;28;20460;-69
2021/07/16 06:16:09;;;;;;;29.00;25.90;;;15.90;99.90;;;;;;5022501;28;20811;-72
2021/07/16 06:18:36;;;;;;;29.00;25.50;;;15.80;99.90;;;;;;5022108;28;20467;-69
2021/07/16 06:21:06;;;;;;;43.00;27.30;;;15.80;99.90;;;;;;5026947;28;20837;-69
2021/07/16 06:23:33;;;;;;;29.23;26.20;;;15.80;99.90;;;;;;5023929;28;20880;-69
2021/07/16 06:26:00;;;;;;;31.57;24.77;;;15.90;99.90;;;;;;5026503;28;20519;-72
2021/07/16 06:28:28;;;;;;;26.40;23.53;;;15.90;99.90;;;;;;5029883;28;20487;-73
2021/07/16 06:30:55;;;;;;;37.03;21.87;;;15.90;99.90;;;;;;5022396;28;20452;-72
2021/07/16 06:33:24;;;;;;;32.83;21.43;;;16.00;99.90;;;;;;5019333;28;20994;-71
2021/07/16 06:35:50;;;;;;;30.33;22.20;;;15.90;99.90;;;;;;5024955;28;20460;-71
2021/07/16 06:38:17;;;;;;;36.73;23.90;;;15.90;99.90;;;;;;5028749;28;20569;-69
2021/07/16 06:40:44;;;;;;;52.57;23.63;;;15.80;99.90;;;;;;5027167;28;20483;-70
2021/07/16 06:43:11;;;;;;;34.30;23.73;;;15.90;99.90;;;;;;5027061;28;20669;-69
2021/07/16 06:45:38;;;;;;;49.10;25.07;;;15.90;99.90;;;;;;5025974;28;20476;-69
2021/07/16 06:48:06;;;;;;;49.93;21.87;;;16.00;99.90;;;;;;5023726;28;20484;-69
2021/07/16 06:50:34;;;;;;;43.30;24.97;;;15.90;99.90;;;;;;5027583;28;20454;-69
2021/07/16 06:53:01;;;;;;;40.10;23.90;;;16.10;99.90;;;;;;5032034;28;20452;-69
2021/07/16 06:55:28;;;;;;;54.63;23.83;;;16.10;99.90;;;;;;5026371;28;20829;-72
2021/07/16 06:57:55;;;;;;;51.27;24.37;;;16.30;99.90;;;;;;5024403;28;20469;-69
2021/07/16 07:00:22;;;;;;;46.57;24.77;;;16.30;99.90;;;;;;5026515;28;20842;-69
2021/07/16 07:02:49;;;;;;;40.47;23.23;;;16.30;99.90;;;;;;5021397;28;20476;-69
2021/07/16 07:05:16;;;;;;;41.07;22.83;;;16.40;99.90;;;;;;5028548;28;20488;-69
2021/07/16 07:07:45;;;;;;;33.97;23.27;;;16.50;99.90;;;;;;5021557;28;20835;-73
2021/07/16 07:10:12;;;;;;;34.17;20.83;;;16.60;99.90;;;;;;5026814;28;20486;-71
2021/07/16 07:12:39;;;;;;;36.70;21.63;;;16.60;99.90;;;;;;5021646;28;20466;-69
2021/07/16 07:15:07;;;;;;;42.87;22.57;;;16.60;99.90;;;;;;5026567;28;20468;-72
2021/07/16 07:17:35;;;;;;;24.73;21.00;;;16.80;99.90;;;;;;5024897;28;20460;-72
2021/07/16 07:20:01;;;;;;;34.27;21.97;;;17.00;99.90;;;;;;5016328;28;20473;-72
2021/07/16 07:22:29;;;;;;;31.73;22.67;;;17.00;99.90;;;;;;5029372;28;20979;-70
2021/07/16 07:24:58;;;;;;;30.77;21.03;;;17.10;99.90;;;;;;5017038;28;20464;-72
2021/07/16 07:27:25;;;;;;;28.53;20.90;;;17.30;99.90;;;;;;5024540;28;21009;-74
2021/07/16 07:29:52;;;;;;;36.73;22.03;;;17.40;99.90;;;;;;5022098;28;20460;-69
2021/07/16 07:32:20;;;;;;;41.00;21.30;;;17.40;99.90;;;;;;5023834;28;20465;-69
2021/07/16 07:34:48;;;;;;;40.30;21.73;;;17.20;99.90;;;;;;5020116;28;20468;-73
2021/07/16 07:37:15;;;;;;;35.20;20.80;;;17.10;99.90;;;;;;5017993;28;20489;-73
2021/07/16 07:39:42;;;;;;;30.40;21.00;;;17.20;99.90;;;;;;5019507;28;20491;-72
2021/07/16 07:42:15;;;;;;;35.67;20.63;;;17.40;99.90;;;;;;5021410;28;20791;-70
2021/07/16 07:44:42;;;;;;;36.00;21.50;;;17.50;99.90;;;;;;5024085;28;20494;-70
2021/07/16 07:47:09;;;;;;;31.50;20.93;;;17.50;99.90;;;;;;5022220;28;20535;-70
2021/07/16 07:49:36;;;;;;;27.50;20.73;;;17.50;99.90;;;;;;5022147;28;20584;-70
2021/07/16 07:52:06;;;;;;;36.23;22.20;;;17.50;99.90;;;;;;5020061;28;20772;-73
2021/07/16 07:54:35;;;;;;;27.80;21.73;;;17.60;99.90;;;;;;5023927;28;20978;-70
2021/07/16 07:57:03;;;;;;;33.37;20.90;;;17.80;99.90;;;;;;5024077;28;20988;-70
2021/07/16 07:59:32;;;;;;;24.03;20.90;;;17.70;99.90;;;;;;5024452;28;20588;-68
2021/07/16 08:01:58;;;;;;;25.17;21.57;;;17.80;99.90;;;;;;5025990;28;20473;-70
2021/07/16 08:04:26;;;;;;;29.73;21.00;;;17.90;99.90;;;;;;5024737;28;20487;-70
2021/07/16 08:06:52;;;;;;;28.20;21.90;;;18.10;99.90;;;;;;5028666;28;20476;-69
2021/07/16 08:09:20;;;;;;;32.80;21.73;;;18.20;99.90;;;;;;5021085;28;20464;-70
2021/07/16 08:11:47;;;;;;;35.50;20.43;;;18.30;99.90;;;;;;5022528;28;20476;-70
2021/07/16 08:14:14;;;;;;;22.07;19.73;;;18.00;99.90;;;;;;5023090;28;20460;-73
2021/07/16 08:16:46;;;;;;;22.37;20.00;;;18.00;99.90;;;;;;5020320;28;20481;-70
2021/07/16 08:19:17;;;;;;;33.30;19.67;;;17.70;99.90;;;;;;5020089;28;20461;-73
2021/07/16 08:21:45;;;;;;;30.70;20.63;;;17.70;99.90;;;;;;5019305;28;20495;-70
2021/07/16 08:24:12;;;;;;;21.67;19.43;;;17.80;99.90;;;;;;5021640;28;20831;-70
2021/07/16 08:26:39;;;;;;;24.87;18.77;;;18.00;99.90;;;;;;5022583;28;20558;-71
2021/07/16 08:29:06;;;;;;;22.37;20.00;;;18.20;99.90;;;;;;5019568;28;20487;-73
2021/07/16 08:31:33;;;;;;;30.60;21.30;;;18.20;99.90;;;;;;5022377;28;20467;-74
2021/07/16 08:34:01;;;;;;;34.43;20.83;;;18.40;99.90;;;;;;5024309;28;20475;-69
2021/07/16 08:36:28;;;;;;;25.83;20.37;;;18.70;99.90;;;;;;5016853;28;20478;-69
2021/07/16 08:38:55;;;;;;;24.60;19.30;;;18.90;99.90;;;;;;5023623;28;20461;-71
2021/07/16 08:41:23;;;;;;;26.90;22.00;;;18.90;99.90;;;;;;5019123;28;20469;-74
2021/07/16 08:43:51;;;;;;;22.73;19.97;;;18.90;99.90;;;;;;5023620;28;20461;-69
2021/07/16 08:46:19;;;;;;;23.93;19.90;;;19.20;99.90;;;;;;5027091;28;20484;-70
2021/07/16 08:48:48;;;;;;;26.17;20.20;;;19.60;99.90;;;;;;5021607;28;20460;-70
2021/07/16 08:51:17;;;;;;;22.10;19.40;;;19.70;99.90;;;;;;5021372;28;20963;-72
2021/07/16 08:53:44;;;;;;;20.77;18.67;;;20.00;99.90;;;;;;5016539;28;20460;-70
2021/07/16 08:56:12;;;;;;;26.70;19.60;;;20.50;99.90;;;;;;5022767;28;20465;-73
2021/07/16 08:58:40;;;;;;;20.53;18.97;;;20.90;99.90;;;;;;5022596;28;20457;-69
2021/07/16 09:01:07;;;;;;;21.13;19.20;;;20.50;99.90;;;;;;5025503;28;20452;-69
2021/07/16 09:03:36;;;;;;;24.73;18.87;;;20.50;99.90;;;;;;5026008;28;20465;-69
2021/07/16 09:06:04;;;;;;;21.90;19.90;;;20.50;99.90;;;;;;5022444;28;20489;-71
2021/07/16 09:08:33;;;;;;;22.90;18.77;;;20.10;99.90;;;;;;5023783;28;20472;-69
2021/07/16 09:11:01;;;;;;;21.00;19.20;;;20.00;99.90;;;;;;5020976;28;20442;-69
2021/07/16 09:13:30;;;;;;;22.20;20.40;;;20.00;99.90;;;;;;5022433;28;20877;-69
2021/07/16 09:15:59;;;;;;;20.73;18.87;;;19.80;99.90;;;;;;5019784;28;20465;-70
2021/07/16 09:18:28;;;;;;;21.43;19.60;;;19.50;99.90;;;;;;5021374;28;20461;-71
2021/07/16 09:21:07;;;;;;;21.20;19.17;;;19.30;99.90;;;;;;5023384;28;20461;-69
2021/07/16 09:23:38;;;;;;;24.33;19.67;;;19.40;99.90;;;;;;5016009;28;20804;-71
2021/07/16 09:26:09;;;;;;;21.87;18.20;;;19.70;99.90;;;;;;5023432;28;20487;-75
2021/07/16 09:28:37;;;;;;;19.40;17.70;;;20.00;99.90;;;;;;5022994;28;20470;-70
2021/07/16 09:31:13;;;;;;;20.30;18.17;;;20.30;99.90;;;;;;5023307;28;20986;-70
2021/07/16 09:33:45;;;;;;;20.00;18.40;;;20.60;99.90;;;;;;5021660;28;20457;-73
2021/07/16 09:36:21;;;;;;;23.10;18.40;;;20.70;99.90;;;;;;5020541;28;20487;-71
2021/07/16 09:38:52;;;;;;;19.93;18.07;;;20.50;99.90;;;;;;5019731;28;20976;-70
2021/07/16 09:41:19;;;;;;;22.57;18.87;;;20.70;99.90;;;;;;5017443;28;20817;-70
2021/07/16 09:43:50;;;;;;;19.83;17.87;;;20.00;99.90;;;;;;5023940;28;20783;-71
2021/07/16 09:46:18;;;;;;;21.17;19.00;;;20.00;99.90;;;;;;5022933;28;20493;-71
2021/07/16 09:48:46;;;;;;;19.30;18.00;;;20.00;99.90;;;;;;5022933;28;20863;-71
2021/07/16 09:51:19;;;;;;;21.10;19.03;;;20.10;99.90;;;;;;5022600;28;20563;-72
2021/07/16 09:53:48;;;;;;;22.33;19.07;;;20.40;99.90;;;;;;5019479;28;20690;-73
2021/07/16 09:56:20;;;;;;;20.67;18.53;;;20.50;99.90;;;;;;5023134;28;20461;-70
2021/07/16 09:58:48;;;;;;;20.50;18.40;;;20.70;99.90;;;;;;5015527;28;20480;-71
2021/07/16 10:01:17;;;;;;;19.77;18.10;;;20.90;99.90;;;;;;5026727;28;20455;-70
2021/07/16 10:03:44;;;;;;;21.30;19.20;;;20.70;99.90;;;;;;5023216;28;20507;-74
2021/07/16 10:06:15;;;;;;;24.97;20.23;;;20.40;99.90;;;;;;5020929;28;20468;-70
2021/07/16 10:08:43;;;;;;;24.30;19.80;;;20.30;99.90;;;;;;5024992;28;20475;-72
2021/07/16 10:11:11;;;;;;;21.80;19.80;;;20.00;99.90;;;;;;5020667;28;20927;-74
2021/07/16 10:13:41;;;;;;;22.20;19.90;;;19.50;99.90;;;;;;5023573;28;20827;-70
2021/07/16 10:16:08;;;;;;;26.27;20.30;;;19.30;99.90;;;;;;5017794;28;20465;-69
2021/07/16 10:18:35;;;;;;;23.33;20.77;;;19.10;99.90;;;;;;5021275;28;20467;-72
2021/07/16 10:21:03;;;;;;;21.67;19.00;;;19.20;99.90;;;;;;5017303;28;20465;-70
2021/07/16 10:23:32;;;;;;;22.83;19.40;;;19.50;99.90;;;;;;5025934;28;20469;-69
2021/07/16 10:26:00;;;;;;;20.97;18.97;;;19.70;99.90;;;;;;5023885;28;20460;-69
2021/07/16 10:28:45;;;;;;;22.33;20.00;;;19.60;99.90;;;;;;5020373;28;20493;-70
2021/07/16 10:31:39;;;;;;;28.43;19.90;;;19.50;99.90;;;;;;5018080;28;20457;-70
2021/07/16 10:34:31;;;;;;;21.73;19.47;;;19.40;99.90;;;;;;5017267;28;20462;-69
2021/07/16 10:37:00;;;;;;;21.13;19.00;;;19.50;99.90;;;;;;5023677;28;20488;-73
2021/07/16 10:39:44;;;;;;;25.27;19.20;;;19.70;99.90;;;;;;5020918;28;20493;-69
2021/07/16 10:42:41;;;;;;;32.10;20.90;;;20.00;99.90;;;;;;5024176;28;20492;-69
2021/07/16 10:45:10;;;;;;;24.50;18.63;;;20.10;99.90;;;;;;5019313;28;20518;-69
2021/07/16 10:47:41;;;;;;;29.70;19.70;;;20.40;99.90;;;;;;5024130;28;20487;-69
2021/07/16 10:50:11;;;;;;;20.37;18.23;;;20.50;99.90;;;;;;5018282;28;20469;-69
2021/07/16 10:52:49;;;;;;;20.20;18.20;;;20.80;99.90;;;;;;5024071;28;20873;-71
2021/07/16 10:55:18;;;;;;;19.23;17.43;;;21.10;99.90;;;;;;5024152;28;20453;-69
2021/07/16 10:57:48;;;;;;;21.00;18.80;;;21.20;99.90;;;;;;5024635;28;20468;-69
2021/07/16 11:00:51;;;;;;;22.80;18.00;;;20.90;99.90;;;;;;5020006;28;20492;-69
2021/07/16 11:03:21;;;;;;;27.87;18.50;;;21.00;99.90;;;;;;5027852;28;20539;-71
2021/07/16 11:05:54;;;;;;;20.73;18.83;;;21.00;99.90;;;;;;5025201;28;20472;-69
2021/07/16 11:08:53;;;;;;;20.30;18.40;;;21.10;99.90;;;;;;5026053;28;20588;-69
2021/07/16 11:11:22;;;;;;;21.50;19.27;;;21.30;99.90;;;;;;5019948;28;20816;-69
2021/07/16 11:13:49;;;;;;;22.10;17.83;;;21.00;99.90;;;;;;5021638;28;20479;-70
2021/07/16 11:16:39;;;;;;;20.90;18.80;;;20.70;99.90;;;;;;5024986;28;20476;-69
2021/07/16 11:19:23;;;;;;;27.47;19.70;;;20.30;99.90;;;;;;5022369;28;20932;-71
2021/07/16 11:22:06;;;;;;;21.20;19.40;;;20.10;99.90;;;;;;5016007;28;21013;-71
2021/07/16 11:24:40;;;;;;;26.57;19.50;;;19.90;99.90;;;;;;5022621;28;20457;-69
2021/07/16 11:27:10;;;;;;;21.10;18.77;;;20.00;99.90;;;;;;5025348;28;20488;-70
2021/07/16 11:29:39;;;;;;;23.63;18.50;;;20.10;99.90;;;;;;5020366;28;20495;-69
2021/07/16 11:32:09;;;;;;;21.53;19.40;;;20.20;99.90;;;;;;5021457;28;20465;-70
2021/07/16 11:34:39;;;;;;;23.90;20.00;;;20.20;99.90;;;;;;5026447;28;20568;-73
2021/07/16 11:37:06;;;;;;;22.83;18.70;;;20.50;99.90;;;;;;5027135;28;20580;-70
2021/07/16 11:39:35;;;;;;;20.03;17.90;;;20.40;99.90;;;;;;5023130;28;20481;-70
2021/07/16 11:42:04;;;;;;;20.73;18.80;;;20.60;99.90;;;;;;5021849;28;20462;-73
2021/07/16 11:44:34;;;;;;;20.30;18.10;;;20.50;99.90;;;;;;5019800;28;20967;-73
2021/07/16 11:47:16;;;;;;;19.93;17.77;;;20.60;99.90;;;;;;5022985;28;20516;-70
2021/07/16 11:49:46;;;;;;;19.87;17.87;;;21.10;99.90;;;;;;5023376;28;20474;-70
2021/07/16 11:52:16;;;;;;;21.40;19.27;;;21.10;99.90;;;;;;5015630;28;20510;-70
2021/07/16 11:54:43;;;;;;;20.43;18.20;;;21.00;99.90;;;;;;5026288;28;20460;-71
2021/07/16 11:57:10;;;;;;;19.20;17.90;;;21.10;99.90;;;;;;5027189;28;20468;-73
2021/07/16 11:59:37;;;;;;;21.07;18.87;;;21.30;99.90;;;;;;5024777;28;20461;-70
2021/07/16 12:02:07;;;;;;;19.60;17.83;;;21.50;99.90;;;;;;5021555;28;20469;-70
2021/07/16 12:04:34;;;;;;;19.93;18.30;;;22.00;99.90;;;;;;5018707;28;20468;-71
2021/07/16 12:07:04;;;;;;;19.43;17.83;;;22.10;99.90;;;;;;5026517;28;20476;-71
2021/07/16 12:09:35;;;;;;;18.70;17.13;;;21.80;99.90;;;;;;5018297;28;20920;-70
2021/07/16 12:12:06;;;;;;;21.17;18.87;;;21.80;99.90;;;;;;5018793;28;20457;-70
2021/07/16 12:14:51;;;;;;;20.93;18.17;;;21.50;99.90;;;;;;5020614;28;20462;-76
2021/07/16 12:17:20;;;;;;;24.97;18.57;;;21.50;99.90;;;;;;5020331;28;20739;-71
2021/07/16 12:19:48;;;;;;;19.37;17.63;;;21.20;99.90;;;;;;5021705;28;20461;-71
2021/07/16 12:22:19;;;;;;;20.17;17.97;;;20.90;99.90;;;;;;5027913;28;20453;-71
2021/07/16 12:24:46;;;;;;;20.73;18.67;;;20.90;99.90;;;;;;5025585;28;20461;-71
2021/07/16 12:27:14;;;;;;;20.73;18.73;;;20.70;99.90;;;;;;5020295;28;20485;-70
2021/07/16 12:29:42;;;;;;;21.07;18.53;;;20.90;99.90;;;;;;5021807;28;20480;-70
2021/07/16 12:32:11;;;;;;;21.33;18.43;;;20.90;99.90;;;;;;5021908;28;20461;-70
2021/07/16 12:34:44;;;;;;;20.10;18.10;;;21.40;99.90;;;;;;5020989;28;20472;-74
2021/07/16 12:37:13;;;;;;;19.33;17.80;;;21.90;99.90;;;;;;5018227;28;20490;-74